sensor_id;sensor_type;location;lat;lon;timestamp;temperature;humidity
23087;DHT22;11712;51.134;4.156;2022-10-04T00:00:50;11.90;99.90
23087;DHT22;11712;51.134;4.156;2022-10-04T00:03:33;11.90;99.90
23087;DHT22;11712;51.134;4.156;2022-10-04T00:06:01;11.80;99.90
23087;DHT22;11712;51.134;4.156;2022-10-04T00:08:41;11.80;99.90
23087;DHT22;11712;51.134;4.156;2022-10-04T00:11:29;11.80;99.90
23087;DHT22;11712;51.134;4.156;2022-10-04T00:14:00;11.80;99.90
23087;DHT22;11712;51.134;4.156;2022-10-04T00:16:33;12.00;99.90
23087;DHT22;11712;51.134;4.156;2022-10-04T00:24:29;11.80;99.90
23087;DHT22;11712;51.134;4.156;2022-10-04T00:27:23;11.80;99.90
23087;DHT22;11712;51.134;4.156;2022-10-04T00:32:28;11.50;99.90
23087;DHT22;11712;51.134;4.156;2022-10-04T00:34:55;11.40;99.90
23087;DHT22;11712;51.134;4.156;2022-10-04T00:37:23;11.30;99.90
23087;DHT22;11712;51.134;4.156;2022-10-04T00:40:04;11.30;99.90
23087;DHT22;11712;51.134;4.156;2022-10-04T00:42:51;11.20;99.90
23087;DHT22;11712;51.134;4.156;2022-10-04T00:45:38;11.30;99.90
23087;DHT22;11712;51.134;4.156;2022-10-04T00:51:03;11.20;99.90
23087;DHT22;11712;51.134;4.156;2022-10-04T00:54:10;11.30;99.90
23087;DHT22;11712;51.134;4.156;2022-10-04T00:59:42;11.40;99.90
23087;DHT22;11712;51.134;4.156;2022-10-04T01:02:29;11.50;99.90
23087;DHT22;11712;51.134;4.156;2022-10-04T01:05:07;11.30;99.90
23087;DHT22;11712;51.134;4.156;2022-10-04T01:07:38;11.40;99.90
23087;DHT22;11712;51.134;4.156;2022-10-04T01:13:08;11.70;99.90
23087;DHT22;11712;51.134;4.156;2022-10-04T01:15:58;11.70;99.90
23087;DHT22;11712;51.134;4.156;2022-10-04T01:21:08;11.40;99.90
23087;DHT22;11712;51.134;4.156;2022-10-04T01:23:35;11.20;99.90
23087;DHT22;11712;51.134;4.156;2022-10-04T01:26:04;11.00;99.90
23087;DHT22;11712;51.134;4.156;2022-10-04T01:30:17;11.00;99.90
23087;DHT22;11712;51.134;4.156;2022-10-04T01:32:44;11.00;99.90
23087;DHT22;11712;51.134;4.156;2022-10-04T01:35:12;11.20;99.90
23087;DHT22;11712;51.134;4.156;2022-10-04T01:37:38;11.30;99.90
23087;DHT22;11712;51.134;4.156;2022-10-04T01:40:06;11.30;99.90
23087;DHT22;11712;51.134;4.156;2022-10-04T01:45:31;11.30;99.90
23087;DHT22;11712;51.134;4.156;2022-10-04T01:48:02;11.30;99.90
23087;DHT22;11712;51.134;4.156;2022-10-04T01:53:26;10.90;99.90
23087;DHT22;11712;51.134;4.156;2022-10-04T01:56:02;10.90;99.90
23087;DHT22;11712;51.134;4.156;2022-10-04T01:58:50;11.00;99.90
23087;DHT22;11712;51.134;4.156;2022-10-04T02:01:27;11.00;99.90
23087;DHT22;11712;51.134;4.156;2022-10-04T02:04:22;11.00;99.90
23087;DHT22;11712;51.134;4.156;2022-10-04T02:06:54;11.20;99.90
23087;DHT22;11712;51.134;4.156;2022-10-04T02:09:41;11.10;99.90
23087;DHT22;11712;51.134;4.156;2022-10-04T02:12:12;11.10;99.90
23087;DHT22;11712;51.134;4.156;2022-10-04T02:14:51;11.10;99.90
23087;DHT22;11712;51.134;4.156;2022-10-04T02:17:24;11.10;99.90
23087;DHT22;11712;51.134;4.156;2022-10-04T02:19:52;11.10;99.90
23087;DHT22;11712;51.134;4.156;2022-10-04T02:22:18;11.20;99.90
23087;DHT22;11712;51.134;4.156;2022-10-04T02:24:46;11.30;99.90
23087;DHT22;11712;51.134;4.156;2022-10-04T02:27:13;11.30;99.90
23087;DHT22;11712;51.134;4.156;2022-10-04T02:30:14;11.40;99.90
23087;DHT22;11712;51.134;4.156;2022-10-04T02:32:41;11.40;99.90
23087;DHT22;11712;51.134;4.156;2022-10-04T02:35:29;11.30;99.90
23087;DHT22;11712;51.134;4.156;2022-10-04T02:38:19;11.10;99.90
23087;DHT22;11712;51.134;4.156;2022-10-04T02:40:55;11.00;99.90
23087;DHT22;11712;51.134;4.156;2022-10-04T02:46:32;10.80;99.90
23087;DHT22;11712;51.134;4.156;2022-10-04T02:49:26;10.80;99.90
23087;DHT22;11712;51.134;4.156;2022-10-04T02:51:59;10.70;99.90
23087;DHT22;11712;51.134;4.156;2022-10-04T02:54:37;10.80;99.90
23087;DHT22;11712;51.134;4.156;2022-10-04T02:57:08;10.90;99.90
23087;DHT22;11712;51.134;4.156;2022-10-04T02:59:38;11.00;99.90
23087;DHT22;11712;51.134;4.156;2022-10-04T03:02:23;11.00;99.90
23087;DHT22;11712;51.134;4.156;2022-10-04T03:04:50;11.00;99.90
23087;DHT22;11712;51.134;4.156;2022-10-04T03:07:17;11.10;99.90
23087;DHT22;11712;51.134;4.156;2022-10-04T03:09:44;11.00;99.90
23087;DHT22;11712;51.134;4.156;2022-10-04T03:12:11;10.80;99.90
23087;DHT22;11712;51.134;4.156;2022-10-04T03:14:38;10.80;99.90
23087;DHT22;11712;51.134;4.156;2022-10-04T03:17:04;10.60;99.90
23087;DHT22;11712;51.134;4.156;2022-10-04T03:19:32;10.50;99.90
23087;DHT22;11712;51.134;4.156;2022-10-04T03:22:06;10.50;99.90
23087;DHT22;11712;51.134;4.156;2022-10-04T03:24:53;10.50;99.90
23087;DHT22;11712;51.134;4.156;2022-10-04T03:27:30;10.50;99.90
23087;DHT22;11712;51.134;4.156;2022-10-04T03:29:58;10.60;99.90
23087;DHT22;11712;51.134;4.156;2022-10-04T03:32:27;10.60;99.90
23087;DHT22;11712;51.134;4.156;2022-10-04T03:35:00;10.50;99.90
23087;DHT22;11712;51.134;4.156;2022-10-04T03:37:29;10.60;99.90
23087;DHT22;11712;51.134;4.156;2022-10-04T03:39:57;10.60;99.90
23087;DHT22;11712;51.134;4.156;2022-10-04T03:42:29;10.50;99.90
23087;DHT22;11712;51.134;4.156;2022-10-04T03:44:59;10.60;99.90
23087;DHT22;11712;51.134;4.156;2022-10-04T03:47:32;10.70;99.90
23087;DHT22;11712;51.134;4.156;2022-10-04T03:50:12;10.90;99.90
23087;DHT22;11712;51.134;4.156;2022-10-04T03:52:43;11.00;99.90
23087;DHT22;11712;51.134;4.156;2022-10-04T03:55:12;11.00;99.90
23087;DHT22;11712;51.134;4.156;2022-10-04T03:57:39;11.00;99.90
23087;DHT22;11712;51.134;4.156;2022-10-04T04:00:06;10.90;99.90
23087;DHT22;11712;51.134;4.156;2022-10-04T04:02:37;10.70;99.90
23087;DHT22;11712;51.134;4.156;2022-10-04T04:05:15;10.60;99.90
23087;DHT22;11712;51.134;4.156;2022-10-04T04:07:49;10.70;99.90
23087;DHT22;11712;51.134;4.156;2022-10-04T04:10:26;10.80;99.90
23087;DHT22;11712;51.134;4.156;2022-10-04T04:12:56;10.90;99.90
23087;DHT22;11712;51.134;4.156;2022-10-04T04:15:28;10.80;99.90
23087;DHT22;11712;51.134;4.156;2022-10-04T04:18:00;10.70;99.90
23087;DHT22;11712;51.134;4.156;2022-10-04T04:20:31;10.70;99.90
23087;DHT22;11712;51.134;4.156;2022-10-04T04:25:31;10.70;99.90
23087;DHT22;11712;51.134;4.156;2022-10-04T04:30:15;10.40;99.90
23087;DHT22;11712;51.134;4.156;2022-10-04T04:32:46;10.30;99.90
23087;DHT22;11712;51.134;4.156;2022-10-04T04:35:29;10.30;99.90
23087;DHT22;11712;51.134;4.156;2022-10-04T04:38:13;10.20;99.90
23087;DHT22;11712;51.134;4.156;2022-10-04T04:40:41;10.10;99.90
23087;DHT22;11712;51.134;4.156;2022-10-04T04:43:13;10.20;99.90
23087;DHT22;11712;51.134;4.156;2022-10-04T04:45:40;10.20;99.90
23087;DHT22;11712;51.134;4.156;2022-10-04T04:48:06;10.30;99.90
23087;DHT22;11712;51.134;4.156;2022-10-04T04:50:36;10.30;99.90
23087;DHT22;11712;51.134;4.156;2022-10-04T04:53:15;10.20;99.90
23087;DHT22;11712;51.134;4.156;2022-10-04T04:55:45;10.20;99.90
23087;DHT22;11712;51.134;4.156;2022-10-04T04:58:20;10.30;99.90
23087;DHT22;11712;51.134;4.156;2022-10-04T05:04:05;10.30;99.90
23087;DHT22;11712;51.134;4.156;2022-10-04T05:06:32;10.30;99.90
23087;DHT22;11712;51.134;4.156;2022-10-04T05:08:59;10.40;99.90
23087;DHT22;11712;51.134;4.156;2022-10-04T05:11:33;10.50;99.90
23087;DHT22;11712;51.134;4.156;2022-10-04T05:14:08;10.50;99.90
23087;DHT22;11712;51.134;4.156;2022-10-04T05:16:45;10.40;99.90
23087;DHT22;11712;51.134;4.156;2022-10-04T05:21:46;10.30;99.90
23087;DHT22;11712;51.134;4.156;2022-10-04T05:27:04;10.30;99.90
23087;DHT22;11712;51.134;4.156;2022-10-04T05:29:35;10.40;99.90
23087;DHT22;11712;51.134;4.156;2022-10-04T05:34:48;10.40;99.90
23087;DHT22;11712;51.134;4.156;2022-10-04T05:43:20;10.30;99.90
23087;DHT22;11712;51.134;4.156;2022-10-04T05:46:04;10.30;99.90
23087;DHT22;11712;51.134;4.156;2022-10-04T05:48:33;10.30;99.90
23087;DHT22;11712;51.134;4.156;2022-10-04T05:50:59;10.20;99.90
23087;DHT22;11712;51.134;4.156;2022-10-04T05:53:32;10.10;99.90
23087;DHT22;11712;51.134;4.156;2022-10-04T06:02:09;10.10;99.90
23087;DHT22;11712;51.134;4.156;2022-10-04T06:07:39;10.10;99.90
23087;DHT22;11712;51.134;4.156;2022-10-04T06:15:54;10.00;99.90
23087;DHT22;11712;51.134;4.156;2022-10-04T06:21:40;10.10;99.90
23087;DHT22;11712;51.134;4.156;2022-10-04T06:24:19;9.90;99.90
23087;DHT22;11712;51.134;4.156;2022-10-04T06:26:49;9.80;99.90
23087;DHT22;11712;51.134;4.156;2022-10-04T06:29:23;9.80;99.90
23087;DHT22;11712;51.134;4.156;2022-10-04T06:37:37;10.00;99.90
23087;DHT22;11712;51.134;4.156;2022-10-04T06:42:45;10.20;99.90
23087;DHT22;11712;51.134;4.156;2022-10-04T06:58:36;10.70;99.90
23087;DHT22;11712;51.134;4.156;2022-10-04T07:04:41;10.60;99.90
23087;DHT22;11712;51.134;4.156;2022-10-04T07:06:56;10.80;99.90
23087;DHT22;11712;51.134;4.156;2022-10-04T07:09:44;10.90;99.90
23087;DHT22;11712;51.134;4.156;2022-10-04T07:12:11;11.10;99.90
23087;DHT22;11712;51.134;4.156;2022-10-04T07:14:47;11.20;99.90
23087;DHT22;11712;51.134;4.156;2022-10-04T07:17:20;11.40;99.90
23087;DHT22;11712;51.134;4.156;2022-10-04T07:19:51;11.40;99.90
23087;DHT22;11712;51.134;4.156;2022-10-04T07:27:48;11.60;99.90
23087;DHT22;11712;51.134;4.156;2022-10-04T07:30:38;11.60;99.90
23087;DHT22;11712;51.134;4.156;2022-10-04T07:33:07;11.60;99.90
23087;DHT22;11712;51.134;4.156;2022-10-04T07:35:45;11.70;99.90
23087;DHT22;11712;51.134;4.156;2022-10-04T07:41:06;11.90;99.90
23087;DHT22;11712;51.134;4.156;2022-10-04T07:43:43;12.10;99.90
23087;DHT22;11712;51.134;4.156;2022-10-04T07:46:19;12.00;99.90
23087;DHT22;11712;51.134;4.156;2022-10-04T07:48:46;11.90;99.90
23087;DHT22;11712;51.134;4.156;2022-10-04T07:51:31;12.00;99.90
23087;DHT22;11712;51.134;4.156;2022-10-04T07:54:18;12.00;99.90
23087;DHT22;11712;51.134;4.156;2022-10-04T07:57:02;12.20;99.90
23087;DHT22;11712;51.134;4.156;2022-10-04T07:59:39;12.40;99.90
23087;DHT22;11712;51.134;4.156;2022-10-04T08:02:20;12.20;99.90
23087;DHT22;11712;51.134;4.156;2022-10-04T08:05:06;12.30;99.90
23087;DHT22;11712;51.134;4.156;2022-10-04T08:07:44;12.10;99.90
23087;DHT22;11712;51.134;4.156;2022-10-04T08:10:28;12.20;99.90
23087;DHT22;11712;51.134;4.156;2022-10-04T08:13:06;12.30;99.90
23087;DHT22;11712;51.134;4.156;2022-10-04T08:15:39;12.40;99.90
23087;DHT22;11712;51.134;4.156;2022-10-04T08:18:23;12.60;99.90
23087;DHT22;11712;51.134;4.156;2022-10-04T08:21:02;12.80;99.90
23087;DHT22;11712;51.134;4.156;2022-10-04T08:35:37;13.20;99.90
23087;DHT22;11712;51.134;4.156;2022-10-04T09:01:15;13.50;99.90
23087;DHT22;11712;51.134;4.156;2022-10-04T09:21:35;14.00;99.90
23087;DHT22;11712;51.134;4.156;2022-10-04T09:23:51;14.20;99.90
23087;DHT22;11712;51.134;4.156;2022-10-04T09:35:13;14.80;99.90
23087;DHT22;11712;51.134;4.156;2022-10-04T09:43:20;14.90;99.90
23087;DHT22;11712;51.134;4.156;2022-10-04T09:46:02;15.20;99.90
23087;DHT22;11712;51.134;4.156;2022-10-04T09:48:34;15.30;99.90
23087;DHT22;11712;51.134;4.156;2022-10-04T09:56:48;15.40;99.90
23087;DHT22;11712;51.134;4.156;2022-10-04T10:08:30;15.90;99.90
23087;DHT22;11712;51.134;4.156;2022-10-04T10:14:16;16.20;99.90
23087;DHT22;11712;51.134;4.156;2022-10-04T10:17:32;16.30;99.90
23087;DHT22;11712;51.134;4.156;2022-10-04T10:37:15;16.90;99.90
23087;DHT22;11712;51.134;4.156;2022-10-04T10:39:51;16.90;99.90
23087;DHT22;11712;51.134;4.156;2022-10-04T10:48:14;16.70;99.90
23087;DHT22;11712;51.134;4.156;2022-10-04T11:04:50;17.40;99.90
23087;DHT22;11712;51.134;4.156;2022-10-04T11:24:59;17.50;99.90
23087;DHT22;11712;51.134;4.156;2022-10-04T11:30:24;17.40;99.90
23087;DHT22;11712;51.134;4.156;2022-10-04T11:39:07;17.50;99.90
23087;DHT22;11712;51.134;4.156;2022-10-04T11:50:06;18.00;99.90
23087;DHT22;11712;51.134;4.156;2022-10-04T11:58:07;17.90;99.90
23087;DHT22;11712;51.134;4.156;2022-10-04T12:06:36;18.30;99.90
23087;DHT22;11712;51.134;4.156;2022-10-04T12:15:36;18.50;99.90
23087;DHT22;11712;51.134;4.156;2022-10-04T12:33:07;19.00;99.90
23087;DHT22;11712;51.134;4.156;2022-10-04T12:47:37;19.20;99.90
23087;DHT22;11712;51.134;4.156;2022-10-04T13:00:47;19.50;99.90
23087;DHT22;11712;51.134;4.156;2022-10-04T13:03:53;19.60;99.90
23087;DHT22;11712;51.134;4.156;2022-10-04T13:13:18;19.70;99.90
23087;DHT22;11712;51.134;4.156;2022-10-04T13:16:00;19.80;99.90
23087;DHT22;11712;51.134;4.156;2022-10-04T13:18:26;19.80;99.90
23087;DHT22;11712;51.134;4.156;2022-10-04T13:21:06;20.00;99.90
23087;DHT22;11712;51.134;4.156;2022-10-04T13:32:22;19.90;99.90
23087;DHT22;11712;51.134;4.156;2022-10-04T13:38:34;20.00;99.90
23087;DHT22;11712;51.134;4.156;2022-10-04T13:44:35;19.80;99.90
23087;DHT22;11712;51.134;4.156;2022-10-04T13:55:25;19.50;99.90
23087;DHT22;11712;51.134;4.156;2022-10-04T13:58:56;19.50;99.90
23087;DHT22;11712;51.134;4.156;2022-10-04T14:40:13;20.10;99.90
23087;DHT22;11712;51.134;4.156;2022-10-04T14:43:09;19.90;99.90
23087;DHT22;11712;51.134;4.156;2022-10-04T15:02:39;21.30;99.90
23087;DHT22;11712;51.134;4.156;2022-10-04T15:13:29;20.70;99.90
23087;DHT22;11712;51.134;4.156;2022-10-04T15:22:01;20.00;99.90
23087;DHT22;11712;51.134;4.156;2022-10-04T15:24:42;20.00;99.90
23087;DHT22;11712;51.134;4.156;2022-10-04T15:27:40;19.80;99.90
23087;DHT22;11712;51.134;4.156;2022-10-04T15:30:24;20.00;99.90
23087;DHT22;11712;51.134;4.156;2022-10-04T15:35:35;20.00;99.90
23087;DHT22;11712;51.134;4.156;2022-10-04T15:46:47;19.70;99.90
23087;DHT22;11712;51.134;4.156;2022-10-04T16:00:27;19.10;99.90
23087;DHT22;11712;51.134;4.156;2022-10-04T16:22:06;18.50;99.90
23087;DHT22;11712;51.134;4.156;2022-10-04T16:32:43;18.50;99.90
23087;DHT22;11712;51.134;4.156;2022-10-04T16:35:23;18.40;99.90
23087;DHT22;11712;51.134;4.156;2022-10-04T16:48:55;18.10;99.90
23087;DHT22;11712;51.134;4.156;2022-10-04T17:10:05;17.70;99.90
23087;DHT22;11712;51.134;4.156;2022-10-04T17:17:57;17.60;99.90
23087;DHT22;11712;51.134;4.156;2022-10-04T17:25:45;17.60;99.90
23087;DHT22;11712;51.134;4.156;2022-10-04T17:35:57;17.40;99.90
23087;DHT22;11712;51.134;4.156;2022-10-04T17:41:33;17.60;99.90
23087;DHT22;11712;51.134;4.156;2022-10-04T17:44:34;17.70;99.90
23087;DHT22;11712;51.134;4.156;2022-10-04T17:47:11;17.60;99.90
23087;DHT22;11712;51.134;4.156;2022-10-04T17:49:54;17.60;99.90
23087;DHT22;11712;51.134;4.156;2022-10-04T17:52:47;17.50;99.90
23087;DHT22;11712;51.134;4.156;2022-10-04T18:04:13;17.60;99.90
23087;DHT22;11712;51.134;4.156;2022-10-04T18:07:10;17.60;99.90
23087;DHT22;11712;51.134;4.156;2022-10-04T18:09:53;17.70;99.90
23087;DHT22;11712;51.134;4.156;2022-10-04T18:12:35;17.80;99.90
23087;DHT22;11712;51.134;4.156;2022-10-04T18:15:20;17.70;99.90
23087;DHT22;11712;51.134;4.156;2022-10-04T18:17:50;17.70;99.90
23087;DHT22;11712;51.134;4.156;2022-10-04T18:20:37;17.60;99.90
23087;DHT22;11712;51.134;4.156;2022-10-04T18:23:25;17.60;99.90
23087;DHT22;11712;51.134;4.156;2022-10-04T18:26:02;17.50;99.90
23087;DHT22;11712;51.134;4.156;2022-10-04T18:28:29;17.30;99.90
23087;DHT22;11712;51.134;4.156;2022-10-04T18:31:00;17.30;99.90
23087;DHT22;11712;51.134;4.156;2022-10-04T18:36:05;17.20;99.90
23087;DHT22;11712;51.134;4.156;2022-10-04T18:38:39;17.30;99.90
23087;DHT22;11712;51.134;4.156;2022-10-04T18:41:18;17.30;99.90
23087;DHT22;11712;51.134;4.156;2022-10-04T18:44:12;17.30;99.90
23087;DHT22;11712;51.134;4.156;2022-10-04T18:46:39;17.30;99.90
23087;DHT22;11712;51.134;4.156;2022-10-04T18:57:41;17.30;99.90
23087;DHT22;11712;51.134;4.156;2022-10-04T19:00:37;17.20;99.90
23087;DHT22;11712;51.134;4.156;2022-10-04T19:03:27;17.10;99.90
23087;DHT22;11712;51.134;4.156;2022-10-04T19:06:21;17.00;99.90
23087;DHT22;11712;51.134;4.156;2022-10-04T19:12:03;17.00;99.90
23087;DHT22;11712;51.134;4.156;2022-10-04T19:18:02;16.80;99.90
23087;DHT22;11712;51.134;4.156;2022-10-04T19:20:39;16.90;99.90
23087;DHT22;11712;51.134;4.156;2022-10-04T19:25:38;17.00;99.90
23087;DHT22;11712;51.134;4.156;2022-10-04T19:31:00;17.10;99.90
23087;DHT22;11712;51.134;4.156;2022-10-04T19:36:54;16.90;99.90
23087;DHT22;11712;51.134;4.156;2022-10-04T19:42:21;17.00;99.90
23087;DHT22;11712;51.134;4.156;2022-10-04T19:48:09;17.00;99.90
23087;DHT22;11712;51.134;4.156;2022-10-04T19:50:48;17.00;99.90
23087;DHT22;11712;51.134;4.156;2022-10-04T19:53:45;17.00;99.90
23087;DHT22;11712;51.134;4.156;2022-10-04T19:56:19;17.00;99.90
23087;DHT22;11712;51.134;4.156;2022-10-04T19:59:06;16.90;99.90
23087;DHT22;11712;51.134;4.156;2022-10-04T20:01:35;16.90;99.90
23087;DHT22;11712;51.134;4.156;2022-10-04T20:04:13;16.90;99.90
23087;DHT22;11712;51.134;4.156;2022-10-04T20:06:59;16.80;99.90
23087;DHT22;11712;51.134;4.156;2022-10-04T20:09:48;16.70;99.90
23087;DHT22;11712;51.134;4.156;2022-10-04T20:12:35;16.80;99.90
23087;DHT22;11712;51.134;4.156;2022-10-04T20:17:43;16.60;99.90
23087;DHT22;11712;51.134;4.156;2022-10-04T20:20:12;16.60;99.90
23087;DHT22;11712;51.134;4.156;2022-10-04T20:30:57;16.70;99.90
23087;DHT22;11712;51.134;4.156;2022-10-04T20:38:49;16.90;99.90
23087;DHT22;11712;51.134;4.156;2022-10-04T20:43:57;17.10;99.90
23087;DHT22;11712;51.134;4.156;2022-10-04T20:46:36;17.00;99.90
23087;DHT22;11712;51.134;4.156;2022-10-04T20:49:04;16.90;99.90
23087;DHT22;11712;51.134;4.156;2022-10-04T20:51:30;16.80;99.90
23087;DHT22;11712;51.134;4.156;2022-10-04T20:53:59;16.80;99.90
23087;DHT22;11712;51.134;4.156;2022-10-04T20:56:28;16.80;99.90
23087;DHT22;11712;51.134;4.156;2022-10-04T20:58:59;16.80;99.90
23087;DHT22;11712;51.134;4.156;2022-10-04T21:01:31;16.90;99.90
23087;DHT22;11712;51.134;4.156;2022-10-04T21:07:01;16.90;99.90
23087;DHT22;11712;51.134;4.156;2022-10-04T21:09:29;17.00;99.90
23087;DHT22;11712;51.134;4.156;2022-10-04T21:11:56;17.00;99.90
23087;DHT22;11712;51.134;4.156;2022-10-04T21:14:24;17.00;99.90
23087;DHT22;11712;51.134;4.156;2022-10-04T21:16:51;16.90;99.90
23087;DHT22;11712;51.134;4.156;2022-10-04T21:22:00;16.80;99.90
23087;DHT22;11712;51.134;4.156;2022-10-04T21:26:55;16.60;99.90
23087;DHT22;11712;51.134;4.156;2022-10-04T21:29:21;16.70;99.90
23087;DHT22;11712;51.134;4.156;2022-10-04T21:31:47;16.80;99.90
23087;DHT22;11712;51.134;4.156;2022-10-04T21:34:12;16.80;99.90
23087;DHT22;11712;51.134;4.156;2022-10-04T21:36:38;16.90;99.90
23087;DHT22;11712;51.134;4.156;2022-10-04T21:39:04;16.90;99.90
23087;DHT22;11712;51.134;4.156;2022-10-04T21:41:29;16.90;99.90
23087;DHT22;11712;51.134;4.156;2022-10-04T21:43:55;16.90;99.90
23087;DHT22;11712;51.134;4.156;2022-10-04T21:46:20;16.80;99.90
23087;DHT22;11712;51.134;4.156;2022-10-04T21:48:46;16.80;99.90
23087;DHT22;11712;51.134;4.156;2022-10-04T21:51:12;16.90;99.90
23087;DHT22;11712;51.134;4.156;2022-10-04T21:53:37;16.80;99.90
23087;DHT22;11712;51.134;4.156;2022-10-04T21:56:03;16.80;99.90
23087;DHT22;11712;51.134;4.156;2022-10-04T21:58:32;16.90;99.90
23087;DHT22;11712;51.134;4.156;2022-10-04T22:00:58;16.80;99.90
23087;DHT22;11712;51.134;4.156;2022-10-04T22:03:23;16.90;99.90
23087;DHT22;11712;51.134;4.156;2022-10-04T22:05:49;16.80;99.90
23087;DHT22;11712;51.134;4.156;2022-10-04T22:08:15;16.90;99.90
23087;DHT22;11712;51.134;4.156;2022-10-04T22:10:40;16.90;99.90
23087;DHT22;11712;51.134;4.156;2022-10-04T22:13:07;16.90;99.90
23087;DHT22;11712;51.134;4.156;2022-10-04T22:15:33;17.00;99.90
23087;DHT22;11712;51.134;4.156;2022-10-04T22:17:59;16.80;99.90
23087;DHT22;11712;51.134;4.156;2022-10-04T22:20:25;16.80;99.90
23087;DHT22;11712;51.134;4.156;2022-10-04T22:22:54;16.70;99.90
23087;DHT22;11712;51.134;4.156;2022-10-04T22:25:22;16.80;99.90
23087;DHT22;11712;51.134;4.156;2022-10-04T22:27:48;16.70;99.90
23087;DHT22;11712;51.134;4.156;2022-10-04T22:30:28;16.80;99.90
23087;DHT22;11712;51.134;4.156;2022-10-04T22:32:59;16.80;99.90
23087;DHT22;11712;51.134;4.156;2022-10-04T22:35:28;16.80;99.90
23087;DHT22;11712;51.134;4.156;2022-10-04T22:37:54;16.80;99.90
23087;DHT22;11712;51.134;4.156;2022-10-04T22:40:22;16.90;99.90
23087;DHT22;11712;51.134;4.156;2022-10-04T22:42:56;16.80;99.90
23087;DHT22;11712;51.134;4.156;2022-10-04T22:45:24;16.60;99.90
23087;DHT22;11712;51.134;4.156;2022-10-04T22:47:50;16.70;99.90
23087;DHT22;11712;51.134;4.156;2022-10-04T22:52:48;17.00;99.90
23087;DHT22;11712;51.134;4.156;2022-10-04T22:55:16;16.70;99.90
23087;DHT22;11712;51.134;4.156;2022-10-04T22:57:41;16.60;99.90
23087;DHT22;11712;51.134;4.156;2022-10-04T23:00:09;16.70;99.90
23087;DHT22;11712;51.134;4.156;2022-10-04T23:02:36;16.60;99.90
23087;DHT22;11712;51.134;4.156;2022-10-04T23:05:16;16.70;99.90
23087;DHT22;11712;51.134;4.156;2022-10-04T23:07:43;16.70;99.90
23087;DHT22;11712;51.134;4.156;2022-10-04T23:10:10;16.70;99.90
23087;DHT22;11712;51.134;4.156;2022-10-04T23:12:38;16.60;99.90
23087;DHT22;11712;51.134;4.156;2022-10-04T23:15:05;16.60;99.90
23087;DHT22;11712;51.134;4.156;2022-10-04T23:17:37;16.50;99.90
23087;DHT22;11712;51.134;4.156;2022-10-04T23:20:15;16.60;99.90
23087;DHT22;11712;51.134;4.156;2022-10-04T23:22:46;16.50;99.90
23087;DHT22;11712;51.134;4.156;2022-10-04T23:25:30;16.50;99.90
23087;DHT22;11712;51.134;4.156;2022-10-04T23:28:00;16.50;99.90
23087;DHT22;11712;51.134;4.156;2022-10-04T23:30:25;16.40;99.90
23087;DHT22;11712;51.134;4.156;2022-10-04T23:32:56;16.50;99.90
23087;DHT22;11712;51.134;4.156;2022-10-04T23:35:29;16.60;99.90
23087;DHT22;11712;51.134;4.156;2022-10-04T23:37:55;16.60;99.90
23087;DHT22;11712;51.134;4.156;2022-10-04T23:40:22;16.60;99.90
23087;DHT22;11712;51.134;4.156;2022-10-04T23:42:51;16.70;99.90
23087;DHT22;11712;51.134;4.156;2022-10-04T23:45:22;16.80;99.90
23087;DHT22;11712;51.134;4.156;2022-10-04T23:47:54;16.60;99.90
23087;DHT22;11712;51.134;4.156;2022-10-04T23:52:49;16.40;99.90
23087;DHT22;11712;51.134;4.156;2022-10-04T23:55:21;16.50;99.90
23087;DHT22;11712;51.134;4.156;2022-10-04T23:57:48;16.50;99.90
